createdAt,value
2023-05-01T00:00:06.855Z,38
2023-05-01T00:00:37.778Z,38
2023-05-01T00:01:08.785Z,38
2023-05-01T00:01:41.227Z,38
2023-05-01T00:02:12.682Z,38
2023-05-01T00:02:45.632Z,38
2023-05-01T00:03:16.571Z,38
2023-05-01T00:03:49.624Z,38
2023-05-01T00:04:20.841Z,38
2023-05-01T00:04:53.470Z,38
2023-05-01T00:05:24.890Z,38
2023-05-01T00:05:57.362Z,38
2023-05-01T00:06:28.597Z,38
2023-05-01T00:07:01.330Z,38
2023-05-01T00:07:32.590Z,38
2023-05-01T00:08:05.662Z,38
2023-05-01T00:08:36.670Z,38
2023-05-01T00:09:09.570Z,38
2023-05-01T00:09:40.596Z,38
2023-05-01T00:10:13.802Z,38
2023-05-01T00:10:44.506Z,38
2023-05-01T00:11:17.626Z,38
2023-05-01T00:11:48.719Z,38
2023-05-01T00:12:21.476Z,38
2023-05-01T00:12:52.617Z,38
2023-05-01T00:13:25.424Z,38
2023-05-01T00:13:56.622Z,38
2023-05-01T00:14:29.331Z,38
2023-05-01T00:15:02.071Z,38
2023-05-01T00:15:33.968Z,38
2023-05-01T00:16:04.811Z,38
2023-05-01T00:16:37.390Z,38
2023-05-01T00:17:08.686Z,38
2023-05-01T00:17:41.646Z,38
2023-05-01T00:18:12.531Z,38
2023-05-01T00:18:45.439Z,38
2023-05-01T00:19:16.657Z,38
2023-05-01T00:19:49.385Z,38
2023-05-01T00:20:20.943Z,38
2023-05-01T00:20:53.710Z,38
2023-05-01T00:21:24.785Z,38
2023-05-01T00:21:57.422Z,38
2023-05-01T00:22:28.694Z,38
2023-05-01T00:23:01.690Z,38
2023-05-01T00:23:32.455Z,38
2023-05-01T00:24:05.336Z,38
2023-05-01T00:24:36.605Z,38
2023-05-01T00:25:09.418Z,38
2023-05-01T00:25:40.562Z,38
2023-05-01T00:26:13.424Z,38
2023-05-01T00:26:44.752Z,38
2023-05-01T00:27:17.743Z,38
2023-05-01T00:27:48.638Z,38
2023-05-01T00:28:21.524Z,38
2023-05-01T00:28:52.536Z,38
2023-05-01T00:29:25.436Z,38
2023-05-01T00:29:56.824Z,38
2023-05-01T00:30:30.472Z,38
2023-05-01T00:31:00.691Z,38
2023-05-01T00:31:33.427Z,38
2023-05-01T00:32:04.777Z,38
2023-05-01T00:32:37.423Z,38
2023-05-01T00:33:08.712Z,38
2023-05-01T00:33:41.426Z,38
2023-05-01T00:34:12.615Z,38
2023-05-01T00:34:45.438Z,38
2023-05-01T00:35:17.014Z,38
2023-05-01T00:35:49.256Z,38
2023-05-01T00:36:20.588Z,38
2023-05-01T00:36:53.520Z,38
2023-05-01T00:37:24.788Z,38
2023-05-01T00:37:57.414Z,38
2023-05-01T00:38:28.593Z,38
2023-05-01T00:39:01.508Z,38
2023-05-01T00:39:32.620Z,38
2023-05-01T00:40:05.640Z,38
2023-05-01T00:40:36.710Z,38
2023-05-01T00:41:09.503Z,38
2023-05-01T00:41:40.533Z,38
2023-05-01T00:42:13.631Z,38
2023-05-01T00:42:44.683Z,38
2023-05-01T00:43:17.184Z,38
2023-05-01T00:43:48.584Z,38
2023-05-01T00:44:21.450Z,38
2023-05-01T00:44:52.729Z,38
2023-05-01T00:45:26.612Z,38
2023-05-01T00:45:56.723Z,38
2023-05-01T00:46:29.428Z,38
2023-05-01T00:47:00.570Z,38
2023-05-01T00:47:33.419Z,38
2023-05-01T00:48:04.628Z,38
2023-05-01T00:48:37.662Z,38
2023-05-01T00:49:08.602Z,38
2023-05-01T00:49:41.443Z,38
2023-05-01T00:50:12.993Z,38
2023-05-01T00:50:45.187Z,38
2023-05-01T00:51:16.612Z,38
2023-05-01T00:51:49.492Z,38
2023-05-01T00:52:20.763Z,38
2023-05-01T00:52:53.146Z,38
2023-05-01T00:53:24.601Z,38
2023-05-01T00:53:57.503Z,38
2023-05-01T00:54:28.615Z,38
2023-05-01T00:55:01.756Z,38
2023-05-01T00:55:32.617Z,38
2023-05-01T00:56:05.533Z,38
2023-05-01T00:56:36.560Z,38
2023-05-01T00:57:09.548Z,38
2023-05-01T00:57:40.666Z,38
2023-05-01T00:58:13.281Z,38
2023-05-01T00:58:44.579Z,38
2023-05-01T00:59:17.466Z,38
2023-05-01T00:59:48.674Z,38
2023-05-01T01:00:22.374Z,38
2023-05-01T01:00:52.699Z,38
2023-05-01T01:01:25.538Z,38
2023-05-01T01:01:56.814Z,38
2023-05-01T01:02:29.382Z,38
2023-05-01T01:03:00.797Z,38
2023-05-01T01:03:33.561Z,38
2023-05-01T01:04:04.514Z,38
2023-05-01T01:04:37.586Z,38
2023-05-01T01:05:08.929Z,38
2023-05-01T01:05:41.244Z,38
2023-05-01T01:06:12.761Z,38
2023-05-01T01:06:45.462Z,38
2023-05-01T01:07:16.504Z,38
2023-05-01T01:07:49.513Z,38
2023-05-01T01:08:20.501Z,38
2023-05-01T01:08:53.452Z,38
2023-05-01T01:09:24.790Z,38
2023-05-01T01:09:58.027Z,38
2023-05-01T01:10:28.894Z,38
2023-05-01T01:11:01.525Z,38
2023-05-01T01:11:32.642Z,38
2023-05-01T01:12:05.512Z,38
2023-05-01T01:12:36.667Z,38
2023-05-01T01:13:09.372Z,38
2023-05-01T01:13:40.581Z,38
2023-05-01T01:14:13.497Z,38
2023-05-01T01:14:44.677Z,38
2023-05-01T01:15:18.303Z,38
2023-05-01T01:15:48.831Z,38
2023-05-01T01:16:21.536Z,38
2023-05-01T01:16:52.664Z,38
2023-05-01T01:17:25.623Z,38
2023-05-01T01:17:56.783Z,38
2023-05-01T01:18:29.256Z,38
2023-05-01T01:19:00.545Z,38
2023-05-01T01:19:33.350Z,38
2023-05-01T01:20:04.894Z,38
2023-05-01T01:20:37.418Z,38
2023-05-01T01:21:08.662Z,38
2023-05-01T01:21:41.589Z,38
2023-05-01T01:22:12.555Z,38
2023-05-01T01:22:45.474Z,38
2023-05-01T01:23:16.713Z,38
2023-05-01T01:23:49.312Z,38
2023-05-01T01:24:20.610Z,38
2023-05-01T01:24:53.268Z,38
2023-05-01T01:25:25.001Z,38
2023-05-01T01:25:57.410Z,38
2023-05-01T01:26:28.797Z,38
2023-05-01T01:27:01.501Z,38
2023-05-01T01:27:32.577Z,38
2023-05-01T01:28:06.329Z,38
2023-05-01T01:28:36.623Z,38
2023-05-01T01:29:09.456Z,38
2023-05-01T01:29:40.682Z,38
2023-05-01T01:29:57.058Z,38
2023-05-01T01:30:29.628Z,38
2023-05-01T01:31:00.698Z,38
2023-05-01T01:31:32.771Z,38
2023-05-01T01:32:04.610Z,38
2023-05-01T01:32:37.780Z,38
2023-05-01T01:33:08.835Z,38
2023-05-01T01:33:41.552Z,38
2023-05-01T01:34:12.563Z,38
2023-05-01T01:34:46.134Z,38
2023-05-01T01:35:17.022Z,38
2023-05-01T01:35:49.319Z,38
2023-05-01T01:36:20.606Z,38
2023-05-01T01:36:53.447Z,38
2023-05-01T01:37:24.788Z,38
2023-05-01T01:37:57.440Z,38
2023-05-01T01:38:28.656Z,38
2023-05-01T01:39:01.377Z,38
2023-05-01T01:39:32.683Z,38
2023-05-01T01:40:05.520Z,38
2023-05-01T01:40:36.720Z,38
2023-05-01T01:41:09.466Z,38
2023-05-01T01:41:40.627Z,38
2023-05-01T01:42:13.447Z,38
2023-05-01T01:42:44.703Z,38
2023-05-01T01:43:17.213Z,38
2023-05-01T01:43:48.746Z,38
2023-05-01T01:44:21.703Z,38
2023-05-01T01:44:52.660Z,38
2023-05-01T01:45:26.523Z,38
2023-05-01T01:45:56.770Z,38
2023-05-01T01:46:29.727Z,38
2023-05-01T01:47:00.733Z,38
2023-05-01T01:47:33.487Z,38
2023-05-01T01:48:04.752Z,38
2023-05-01T01:48:38.311Z,38
2023-05-01T01:49:08.672Z,38
2023-05-01T01:49:41.522Z,38
2023-05-01T01:50:13.063Z,38
2023-05-01T01:50:45.273Z,38
2023-05-01T01:51:16.636Z,38
2023-05-01T01:51:49.483Z,38
2023-05-01T01:52:20.696Z,38
2023-05-01T01:52:53.563Z,38
2023-05-01T01:53:24.870Z,38
2023-05-01T01:53:57.604Z,38
2023-05-01T01:54:28.624Z,38
2023-05-01T01:55:01.951Z,38
2023-05-01T01:55:32.662Z,38
2023-05-01T01:56:05.366Z,38
2023-05-01T01:56:36.611Z,38
2023-05-01T01:57:09.739Z,38
2023-05-01T01:57:40.793Z,38
2023-05-01T01:58:13.524Z,38
2023-05-01T01:58:44.601Z,38
2023-05-01T01:59:17.698Z,38
2023-05-01T01:59:48.627Z,38
2023-05-01T02:00:22.842Z,38
2023-05-01T02:00:52.856Z,38
2023-05-01T02:01:25.555Z,38
2023-05-01T02:01:56.758Z,38
2023-05-01T02:02:29.560Z,38
2023-05-01T02:03:00.955Z,38
2023-05-01T02:03:33.531Z,38
2023-05-01T02:04:04.808Z,38
2023-05-01T02:04:37.532Z,38
2023-05-01T02:05:08.829Z,38
2023-05-01T02:05:24.811Z,38
2023-05-01T02:05:56.999Z,38
2023-05-01T02:06:28.721Z,38
2023-05-01T02:07:01.579Z,38
2023-05-01T02:07:32.704Z,38
2023-05-01T02:08:05.630Z,38
2023-05-01T02:08:36.901Z,38
2023-05-01T02:09:09.783Z,38
2023-05-01T02:09:40.855Z,38
2023-05-01T02:10:13.776Z,38
2023-05-01T02:10:44.676Z,38
2023-05-01T02:11:17.508Z,38
2023-05-01T02:11:48.656Z,38
2023-05-01T02:12:21.516Z,38
2023-05-01T02:12:52.737Z,38
2023-05-01T02:13:25.500Z,38
2023-05-01T02:13:56.664Z,38
2023-05-01T02:14:29.359Z,38
2023-05-01T02:15:02.073Z,38
2023-05-01T02:15:33.714Z,38
2023-05-01T02:16:04.650Z,38
2023-05-01T02:16:37.859Z,38
2023-05-01T02:17:08.637Z,38
2023-05-01T02:17:24.877Z,38
2023-05-01T02:17:56.872Z,38
2023-05-01T02:18:28.626Z,38
2023-05-01T02:19:01.502Z,38
2023-05-01T02:19:32.802Z,38
2023-05-01T02:20:05.700Z,38
2023-05-01T02:20:36.686Z,38
2023-05-01T02:21:09.749Z,38
2023-05-01T02:21:40.576Z,38
2023-05-01T02:21:56.743Z,38
2023-05-01T02:22:28.700Z,38
2023-05-01T02:23:00.651Z,38
2023-05-01T02:23:33.693Z,38
2023-05-01T02:24:04.686Z,38
2023-05-01T02:24:37.368Z,38
2023-05-01T02:25:08.946Z,38
2023-05-01T02:25:41.405Z,38
2023-05-01T02:26:12.818Z,38
2023-05-01T02:26:45.397Z,38
2023-05-01T02:27:16.665Z,38
2023-05-01T02:27:49.524Z,38
2023-05-01T02:28:20.460Z,38
2023-05-01T02:28:53.504Z,38
2023-05-01T02:29:24.705Z,38
2023-05-01T02:29:57.947Z,38
2023-05-01T02:30:29.654Z,38
2023-05-01T02:31:01.575Z,38
2023-05-01T02:31:32.796Z,38
2023-05-01T02:32:05.659Z,38
2023-05-01T02:32:36.706Z,38
2023-05-01T02:33:09.772Z,38
2023-05-01T02:33:40.934Z,38
2023-05-01T02:34:13.488Z,38
2023-05-01T02:34:44.749Z,38
2023-05-01T02:35:17.862Z,38
2023-05-01T02:35:48.652Z,38
2023-05-01T02:36:21.535Z,38
2023-05-01T02:36:52.750Z,38
2023-05-01T02:37:25.616Z,38
2023-05-01T02:37:56.720Z,38
2023-05-01T02:38:29.860Z,38
2023-05-01T02:39:00.525Z,38
2023-05-01T02:39:33.550Z,38
2023-05-01T02:40:04.904Z,38
2023-05-01T02:40:37.549Z,38
2023-05-01T02:41:08.569Z,38
2023-05-01T02:41:41.552Z,38
2023-05-01T02:42:12.886Z,38
2023-05-01T02:42:45.745Z,38
2023-05-01T02:43:16.643Z,38
2023-05-01T02:43:49.551Z,38
2023-05-01T02:44:20.855Z,38
2023-05-01T02:44:53.513Z,38
2023-05-01T02:45:25.643Z,38
2023-05-01T02:45:57.678Z,80
2023-05-01T02:46:28.841Z,80
2023-05-01T02:47:01.479Z,81
2023-05-01T02:47:32.763Z,81
2023-05-01T02:48:05.593Z,81
2023-05-01T02:48:36.638Z,81
2023-05-01T02:49:09.708Z,81
2023-05-01T02:49:40.868Z,85
2023-05-01T02:50:13.894Z,85
2023-05-01T02:50:44.681Z,85
2023-05-01T02:51:17.507Z,85
2023-05-01T02:51:48.651Z,85
2023-05-01T02:52:22.396Z,85
2023-05-01T02:52:52.710Z,85
2023-05-01T02:53:25.749Z,81
2023-05-01T02:53:56.647Z,81
2023-05-01T02:54:29.579Z,81
2023-05-01T02:55:01.094Z,108
2023-05-01T02:55:33.439Z,108
2023-05-01T02:56:04.674Z,108
2023-05-01T02:56:39.656Z,108
2023-05-01T02:57:08.696Z,108
2023-05-01T02:57:41.552Z,107
2023-05-01T02:58:12.773Z,107
2023-05-01T02:58:45.471Z,107
2023-05-01T02:59:16.615Z,107
2023-05-01T02:59:49.361Z,108
2023-05-01T03:00:21.771Z,108
2023-05-01T03:00:53.568Z,108
2023-05-01T03:01:24.793Z,108
2023-05-01T03:01:57.531Z,108
2023-05-01T03:02:28.824Z,108
2023-05-01T03:03:01.684Z,108
2023-05-01T03:03:32.599Z,108
2023-05-01T03:04:05.538Z,108
2023-05-01T03:04:36.862Z,107
2023-05-01T03:05:09.829Z,107
2023-05-01T03:05:40.687Z,107
2023-05-01T03:06:13.671Z,107
2023-05-01T03:06:44.710Z,108
2023-05-01T03:07:17.645Z,108
2023-05-01T03:07:48.716Z,108
2023-05-01T03:08:21.622Z,111
2023-05-01T03:08:52.636Z,109
2023-05-01T03:09:25.660Z,109
2023-05-01T03:09:57.172Z,109
2023-05-01T03:10:29.825Z,109
2023-05-01T03:11:00.772Z,108
2023-05-01T03:11:33.640Z,108
2023-05-01T03:12:04.477Z,109
2023-05-01T03:12:37.596Z,109
2023-05-01T03:13:08.785Z,109
2023-05-01T03:13:42.360Z,109
2023-05-01T03:14:12.636Z,109
2023-05-01T03:14:45.771Z,109
2023-05-01T03:15:17.708Z,110
2023-05-01T03:15:49.843Z,110
2023-05-01T03:16:20.666Z,110
2023-05-01T03:16:53.443Z,110
2023-05-01T03:17:24.659Z,110
2023-05-01T03:17:57.619Z,110
2023-05-01T03:18:28.853Z,110
2023-05-01T03:19:01.775Z,110
2023-05-01T03:19:32.675Z,74
2023-05-01T03:20:05.821Z,113
2023-05-01T03:20:36.759Z,113
2023-05-01T03:21:09.385Z,113
2023-05-01T03:21:40.731Z,113
2023-05-01T03:22:13.652Z,113
2023-05-01T03:22:44.840Z,113
2023-05-01T03:23:17.455Z,74
2023-05-01T03:23:48.834Z,74
2023-05-01T03:24:21.672Z,74
2023-05-01T03:24:52.682Z,74
2023-05-01T03:25:25.739Z,74
2023-05-01T03:25:56.685Z,74
2023-05-01T03:26:29.807Z,74
2023-05-01T03:27:00.654Z,131
2023-05-01T03:27:33.754Z,131
2023-05-01T03:28:04.777Z,131
2023-05-01T03:28:38.838Z,131
2023-05-01T03:29:08.707Z,131
2023-05-01T03:29:41.549Z,131
2023-05-01T03:30:13.521Z,73
2023-05-01T03:30:45.544Z,79
2023-05-01T03:31:16.722Z,79
2023-05-01T03:31:49.710Z,79
2023-05-01T03:32:20.707Z,79
2023-05-01T03:32:53.732Z,79
2023-05-01T03:33:24.753Z,88
2023-05-01T03:33:59.455Z,80
2023-05-01T03:34:28.672Z,84
2023-05-01T03:35:01.938Z,84
2023-05-01T03:35:32.814Z,84
2023-05-01T03:36:05.374Z,84
2023-05-01T03:36:36.705Z,84
2023-05-01T03:37:09.750Z,84
2023-05-01T03:37:40.567Z,84
2023-05-01T03:38:13.381Z,84
2023-05-01T03:38:44.661Z,84
2023-05-01T03:39:17.664Z,84
2023-05-01T03:39:48.621Z,84
2023-05-01T03:40:21.703Z,84
2023-05-01T03:40:52.790Z,84
2023-05-01T03:41:25.479Z,105
2023-05-01T03:41:56.645Z,105
2023-05-01T03:42:29.595Z,105
2023-05-01T03:43:00.763Z,105
2023-05-01T03:43:33.299Z,79
2023-05-01T03:44:04.754Z,105
2023-05-01T03:44:38.432Z,105
2023-05-01T03:45:09.701Z,105
2023-05-01T03:45:44.209Z,105
2023-05-01T03:46:12.713Z,105
2023-05-01T03:46:45.725Z,105
2023-05-01T03:47:16.676Z,82
2023-05-01T03:47:49.578Z,82
2023-05-01T03:48:20.717Z,82
2023-05-01T03:48:53.576Z,82
2023-05-01T03:49:24.603Z,82
2023-05-01T03:49:57.784Z,81
2023-05-01T03:50:29.087Z,81
2023-05-01T03:51:01.588Z,81
2023-05-01T03:51:32.768Z,81
2023-05-01T03:52:05.471Z,81
2023-05-01T03:52:36.671Z,81
2023-05-01T03:53:09.548Z,81
2023-05-01T03:53:40.704Z,81
2023-05-01T03:54:13.540Z,81
2023-05-01T03:54:44.618Z,81
2023-05-01T03:55:17.657Z,81
2023-05-01T03:55:48.693Z,75
2023-05-01T03:56:21.534Z,75
2023-05-01T03:56:52.684Z,75
2023-05-01T03:57:25.686Z,75
2023-05-01T03:57:56.803Z,75
2023-05-01T03:58:29.739Z,75
2023-05-01T03:59:00.917Z,75
2023-05-01T03:59:33.550Z,75
2023-05-01T04:00:06.531Z,75
2023-05-01T04:00:39.788Z,71
2023-05-01T04:01:08.826Z,71
2023-05-01T04:01:41.878Z,71
2023-05-01T04:02:12.959Z,71
2023-05-01T04:02:46.152Z,71
2023-05-01T04:03:17.085Z,71
2023-05-01T04:03:49.761Z,71
2023-05-01T04:04:20.902Z,71
2023-05-01T04:04:53.770Z,71
2023-05-01T04:05:25.261Z,71
2023-05-01T04:05:57.788Z,71
2023-05-01T04:06:28.976Z,71
2023-05-01T04:07:01.764Z,70
2023-05-01T04:07:32.986Z,70
2023-05-01T04:08:05.977Z,70
2023-05-01T04:08:36.896Z,70
2023-05-01T04:09:09.945Z,70
2023-05-01T04:09:40.858Z,70
2023-05-01T04:10:13.840Z,70
2023-05-01T04:10:45.017Z,70
2023-05-01T04:11:17.740Z,70
2023-05-01T04:11:48.838Z,71
2023-05-01T04:12:21.901Z,71
2023-05-01T04:12:52.966Z,71
2023-05-01T04:13:25.621Z,71
2023-05-01T04:13:56.992Z,70
2023-05-01T04:14:29.767Z,70
2023-05-01T04:15:02.534Z,70
2023-05-01T04:15:33.889Z,70
2023-05-01T04:16:05.028Z,70
2023-05-01T04:16:37.974Z,70
2023-05-01T04:17:08.877Z,70
2023-05-01T04:17:25.255Z,70
2023-05-01T04:17:56.973Z,70
2023-05-01T04:18:28.974Z,70
2023-05-01T04:19:00.994Z,70
2023-05-01T04:19:33.101Z,70
2023-05-01T04:20:05.125Z,70
2023-05-01T04:20:37.000Z,70
2023-05-01T04:21:09.078Z,71
2023-05-01T04:21:40.841Z,71
2023-05-01T04:21:58.085Z,71
2023-05-01T04:22:28.917Z,71
2023-05-01T04:23:01.953Z,71
2023-05-01T04:23:32.987Z,71
2023-05-01T04:24:05.764Z,71
2023-05-01T04:24:36.944Z,71
2023-05-01T04:25:11.043Z,71
2023-05-01T04:25:41.045Z,71
2023-05-01T04:26:13.704Z,71
2023-05-01T04:26:44.950Z,71
2023-05-01T04:27:17.781Z,71
2023-05-01T04:27:48.844Z,71
2023-05-01T04:28:21.573Z,71
2023-05-01T04:28:52.946Z,71
2023-05-01T04:29:25.847Z,71
2023-05-01T04:29:57.291Z,71
2023-05-01T04:30:31.712Z,71
2023-05-01T04:31:00.993Z,71
2023-05-01T04:31:34.590Z,71
2023-05-01T04:32:04.888Z,71
2023-05-01T04:32:37.923Z,71
2023-05-01T04:33:09.098Z,71
2023-05-01T04:33:41.624Z,71
2023-05-01T04:34:12.924Z,71
2023-05-01T04:34:45.917Z,71
2023-05-01T04:35:17.323Z,71
2023-05-01T04:35:49.912Z,71
2023-05-01T04:36:20.941Z,71
2023-05-01T04:36:54.821Z,71
2023-05-01T04:37:24.979Z,71
2023-05-01T04:37:58.027Z,71
2023-05-01T04:38:29.143Z,71
2023-05-01T04:39:03.409Z,71
2023-05-01T04:39:32.972Z,71
2023-05-01T04:40:05.983Z,71
2023-05-01T04:40:36.876Z,71
2023-05-01T04:41:09.859Z,71
2023-05-01T04:41:41.059Z,71
2023-05-01T04:42:13.918Z,71
2023-05-01T04:42:45.032Z,70
2023-05-01T04:43:17.750Z,70
2023-05-01T04:43:49.112Z,71
2023-05-01T04:44:21.885Z,71
2023-05-01T04:44:52.960Z,71
2023-05-01T04:45:26.982Z,71
2023-05-01T04:45:57.276Z,71
2023-05-01T04:46:29.668Z,71
2023-05-01T04:47:01.078Z,71
2023-05-01T04:47:33.968Z,71
2023-05-01T04:48:05.165Z,71
2023-05-01T04:48:37.805Z,70
2023-05-01T04:49:09.060Z,71
2023-05-01T04:49:42.563Z,71
2023-05-01T04:50:13.430Z,71
2023-05-01T04:50:45.764Z,71
2023-05-01T04:51:17.050Z,70
2023-05-01T04:51:49.892Z,71
2023-05-01T04:52:20.868Z,71
2023-05-01T04:52:54.637Z,71
2023-05-01T04:53:25.120Z,71
2023-05-01T04:53:57.845Z,71
2023-05-01T04:54:28.970Z,70
2023-05-01T04:55:02.093Z,70
2023-05-01T04:55:32.899Z,70
2023-05-01T04:56:05.789Z,70
2023-05-01T04:56:37.071Z,70
2023-05-01T04:57:09.838Z,70
2023-05-01T04:57:40.992Z,70
2023-05-01T04:58:13.913Z,71
2023-05-01T04:58:45.041Z,71
2023-05-01T04:59:17.684Z,71
2023-05-01T04:59:48.837Z,70
2023-05-01T05:00:23.569Z,70
2023-05-01T05:00:53.038Z,70
2023-05-01T05:01:25.744Z,70
2023-05-01T05:01:57.299Z,70
2023-05-01T05:02:30.181Z,70
2023-05-01T05:03:01.082Z,70
2023-05-01T05:03:34.470Z,70
2023-05-01T05:04:05.195Z,69
2023-05-01T05:04:38.881Z,65
2023-05-01T05:05:09.211Z,65
2023-05-01T05:05:41.810Z,65
2023-05-01T05:06:12.978Z,65
2023-05-01T05:06:46.003Z,65
2023-05-01T05:07:16.971Z,65
2023-05-01T05:07:49.934Z,65
2023-05-01T05:08:21.082Z,65
2023-05-01T05:08:54.743Z,65
2023-05-01T05:09:25.121Z,65
2023-05-01T05:09:57.919Z,65
2023-05-01T05:10:29.304Z,65
2023-05-01T05:11:01.744Z,65
2023-05-01T05:11:33.096Z,65
2023-05-01T05:12:05.734Z,65
2023-05-01T05:12:37.071Z,65
2023-05-01T05:13:09.739Z,64
2023-05-01T05:13:41.200Z,61
2023-05-01T05:14:13.658Z,58
2023-05-01T05:14:44.959Z,57
2023-05-01T05:15:18.833Z,57
2023-05-01T05:15:48.975Z,57
2023-05-01T05:16:21.785Z,57
2023-05-01T05:16:53.334Z,57
2023-05-01T05:17:25.854Z,57
2023-05-01T05:17:57.000Z,57
2023-05-01T05:18:29.773Z,57
2023-05-01T05:19:01.083Z,57
2023-05-01T05:19:33.820Z,57
2023-05-01T05:20:05.131Z,57
2023-05-01T05:20:37.731Z,57
2023-05-01T05:21:09.098Z,57
2023-05-01T05:21:41.642Z,57
2023-05-01T05:22:13.033Z,57
2023-05-01T05:22:46.006Z,57
2023-05-01T05:23:16.877Z,57
2023-05-01T05:23:49.764Z,48
2023-05-01T05:24:20.954Z,48
2023-05-01T05:24:53.711Z,48
2023-05-01T05:25:25.321Z,48
2023-05-01T05:25:57.917Z,48
2023-05-01T05:26:29.179Z,48
2023-05-01T05:27:01.634Z,48
2023-05-01T05:27:32.933Z,48
2023-05-01T05:28:05.654Z,70
2023-05-01T05:28:37.064Z,55
2023-05-01T05:29:09.680Z,55
2023-05-01T05:29:40.920Z,70
2023-05-01T05:30:14.786Z,70
2023-05-01T05:30:44.998Z,70
2023-05-01T05:31:17.732Z,49
2023-05-01T05:31:49.035Z,49
2023-05-01T05:32:22.124Z,49
2023-05-01T05:32:53.049Z,52
2023-05-01T05:33:25.762Z,60
2023-05-01T05:33:57.115Z,34
2023-05-01T05:34:29.548Z,43
2023-05-01T05:35:01.268Z,43
2023-05-01T05:35:33.880Z,43
2023-05-01T05:36:05.079Z,43
2023-05-01T05:36:37.839Z,43
2023-05-01T05:37:09.007Z,89
2023-05-01T05:37:43.420Z,43
2023-05-01T05:38:12.920Z,43
2023-05-01T05:38:45.842Z,43
2023-05-01T05:39:17.038Z,43
2023-05-01T05:39:49.904Z,57
2023-05-01T05:40:21.257Z,49
2023-05-01T05:40:53.728Z,49
2023-05-01T05:41:25.109Z,48
2023-05-01T05:41:57.811Z,48
2023-05-01T05:42:28.987Z,48
2023-05-01T05:43:02.011Z,48
2023-05-01T05:43:33.280Z,32
2023-05-01T05:44:06.210Z,63
2023-05-01T05:44:37.363Z,63
2023-05-01T05:45:11.119Z,37
2023-05-01T05:45:41.528Z,37
2023-05-01T05:45:57.849Z,28
2023-05-01T05:46:29.437Z,49
2023-05-01T05:47:01.426Z,28
2023-05-01T05:47:33.344Z,70
2023-05-01T05:48:05.322Z,70
2023-05-01T05:48:38.146Z,28
2023-05-01T05:49:09.526Z,63
2023-05-01T05:49:42.122Z,63
2023-05-01T05:50:13.658Z,63
2023-05-01T05:50:46.085Z,63
2023-05-01T05:51:17.475Z,63
2023-05-01T05:51:50.082Z,63
2023-05-01T05:52:21.408Z,56
2023-05-01T05:52:54.393Z,21
2023-05-01T05:53:26.119Z,21
2023-05-01T05:53:58.198Z,21
2023-05-01T05:54:29.373Z,21
2023-05-01T05:55:02.657Z,21
2023-05-01T05:55:33.014Z,20
2023-05-01T05:56:05.846Z,20
2023-05-01T05:56:37.065Z,20
2023-05-01T05:57:10.001Z,20
2023-05-01T05:57:41.170Z,20
2023-05-01T05:58:13.804Z,20
2023-05-01T05:58:45.010Z,26
2023-05-01T05:59:18.061Z,13
2023-05-01T05:59:48.931Z,13
2023-05-01T06:00:23.185Z,13
2023-05-01T06:00:53.185Z,13
2023-05-01T06:01:25.808Z,13
2023-05-01T06:01:56.981Z,13
2023-05-01T06:02:30.017Z,10
2023-05-01T06:03:01.009Z,76
2023-05-01T06:03:34.104Z,17
2023-05-01T06:04:04.993Z,17
2023-05-01T06:04:38.860Z,18
2023-05-01T06:05:09.188Z,18
2023-05-01T06:05:41.946Z,18
2023-05-01T06:06:13.456Z,18
2023-05-01T06:06:46.008Z,18
2023-05-01T06:07:17.291Z,18
2023-05-01T06:07:50.338Z,16
2023-05-01T06:08:21.459Z,16
2023-05-01T06:08:54.017Z,63
2023-05-01T06:09:25.467Z,63
2023-05-01T06:10:03.482Z,83
2023-05-01T06:10:29.322Z,24
2023-05-01T06:11:01.419Z,24
2023-05-01T06:11:33.357Z,41
2023-05-01T06:12:05.241Z,23
2023-05-01T06:12:38.632Z,15
2023-05-01T06:13:13.305Z,15
2023-05-01T06:13:42.259Z,15
2023-05-01T06:14:13.461Z,15
2023-05-01T06:14:46.180Z,42
2023-05-01T06:15:18.293Z,42
2023-05-01T06:15:50.306Z,42
2023-05-01T06:16:21.355Z,21
2023-05-01T06:16:54.125Z,42
2023-05-01T06:17:25.493Z,42
2023-05-01T06:17:58.122Z,34
2023-05-01T06:18:29.451Z,34
2023-05-01T06:19:02.985Z,18
2023-05-01T06:19:33.293Z,30
2023-05-01T06:20:06.292Z,30
2023-05-01T06:20:37.494Z,33
2023-05-01T06:21:09.990Z,30
2023-05-01T06:21:41.311Z,36
2023-05-01T06:22:14.322Z,38
2023-05-01T06:22:45.332Z,38
2023-05-01T06:23:17.840Z,25
2023-05-01T06:23:49.310Z,25
2023-05-01T06:24:22.056Z,25
2023-05-01T06:24:53.311Z,25
2023-05-01T06:25:26.378Z,25
2023-05-01T06:25:57.479Z,25
2023-05-01T06:26:30.221Z,25
2023-05-01T06:27:01.603Z,25
2023-05-01T06:27:34.186Z,25
2023-05-01T06:28:05.402Z,79
2023-05-01T06:28:38.966Z,83
2023-05-01T06:29:09.410Z,80
2023-05-01T06:29:25.604Z,80
2023-05-01T06:29:57.602Z,80
2023-05-01T06:30:30.462Z,80
2023-05-01T06:31:01.292Z,80
2023-05-01T06:31:33.266Z,80
2023-05-01T06:32:06.308Z,80
2023-05-01T06:32:37.550Z,80
2023-05-01T06:33:10.113Z,80
2023-05-01T06:33:41.389Z,80
2023-05-01T06:34:14.213Z,80
2023-05-01T06:34:45.499Z,80
2023-05-01T06:35:18.232Z,80
2023-05-01T06:35:49.325Z,22
2023-05-01T06:36:22.287Z,22
2023-05-01T06:36:53.384Z,31
2023-05-01T06:37:26.285Z,31
2023-05-01T06:37:57.309Z,31
2023-05-01T06:38:29.961Z,31
2023-05-01T06:39:01.340Z,31
2023-05-01T06:39:34.338Z,31
2023-05-01T06:40:05.597Z,31
2023-05-01T06:40:39.006Z,31
2023-05-01T06:41:09.433Z,32
2023-05-01T06:41:42.327Z,32
2023-05-01T06:42:13.446Z,32
2023-05-01T06:42:46.372Z,41
2023-05-01T06:43:17.456Z,41
2023-05-01T06:43:50.235Z,41
2023-05-01T06:44:21.387Z,40
2023-05-01T06:44:54.134Z,40
2023-05-01T06:45:26.449Z,40
2023-05-01T06:45:59.111Z,32
2023-05-01T06:46:29.437Z,32
2023-05-01T06:47:02.479Z,32
2023-05-01T06:47:33.401Z,32
2023-05-01T06:48:06.450Z,35
2023-05-01T06:48:37.544Z,35
2023-05-01T06:49:10.139Z,39
2023-05-01T06:49:41.452Z,39
2023-05-01T06:50:14.606Z,38
2023-05-01T06:50:45.446Z,37
2023-05-01T06:51:19.102Z,37
2023-05-01T06:51:49.465Z,37
2023-05-01T06:52:22.538Z,32
2023-05-01T06:52:53.499Z,32
2023-05-01T06:53:26.432Z,36
2023-05-01T06:53:57.566Z,37
2023-05-01T06:54:30.188Z,30
2023-05-01T06:55:01.897Z,37
2023-05-01T06:55:35.948Z,30
2023-05-01T06:56:05.342Z,30
2023-05-01T06:56:38.936Z,37
2023-05-01T06:57:09.454Z,39
2023-05-01T06:57:43.282Z,39
2023-05-01T06:58:23.562Z,39
2023-05-01T06:58:46.180Z,39
2023-05-01T06:59:17.377Z,30
2023-05-01T06:59:50.347Z,12
2023-05-01T07:00:22.959Z,13
2023-05-01T07:00:54.353Z,13
2023-05-01T07:01:25.582Z,12
2023-05-01T07:01:58.163Z,12
2023-05-01T07:02:29.430Z,12
2023-05-01T07:03:02.422Z,12
2023-05-01T07:03:33.497Z,12
2023-05-01T07:04:06.320Z,12
2023-05-01T07:04:37.263Z,12
2023-05-01T07:05:10.501Z,12
2023-05-01T07:05:41.412Z,12
2023-05-01T07:06:14.052Z,12
2023-05-01T07:06:45.539Z,12
2023-05-01T07:07:18.071Z,354
2023-05-01T07:07:54.241Z,354
2023-05-01T07:08:22.286Z,354
2023-05-01T07:08:53.445Z,354
2023-05-01T07:09:26.189Z,354
2023-05-01T07:09:57.826Z,354
2023-05-01T07:10:31.583Z,354
2023-05-01T07:11:01.313Z,354
2023-05-01T07:11:34.369Z,354
2023-05-01T07:12:05.431Z,354
2023-05-01T07:12:39.210Z,354
2023-05-01T07:13:09.460Z,354
2023-05-01T07:13:42.349Z,354
2023-05-01T07:14:13.285Z,354
2023-05-01T07:14:46.161Z,354
2023-05-01T07:15:18.255Z,0
2023-05-01T07:15:52.253Z,25
2023-05-01T07:16:21.335Z,25
2023-05-01T07:16:54.353Z,25
2023-05-01T07:17:25.572Z,25
2023-05-01T07:17:58.273Z,56
2023-05-01T07:18:29.506Z,56
2023-05-01T07:19:02.415Z,56
2023-05-01T07:19:33.318Z,56
2023-05-01T07:20:06.269Z,47
2023-05-01T07:20:37.307Z,60
2023-05-01T07:21:10.013Z,55
2023-05-01T07:21:41.393Z,60
2023-05-01T07:22:14.327Z,55
2023-05-01T07:22:45.462Z,60
2023-05-01T07:23:18.070Z,60
2023-05-01T07:23:49.353Z,60
2023-05-01T07:24:22.220Z,60
2023-05-01T07:24:53.137Z,60
2023-05-01T07:25:26.517Z,55
2023-05-01T07:25:57.249Z,352
2023-05-01T07:26:30.404Z,352
2023-05-01T07:27:01.369Z,352
2023-05-01T07:27:34.453Z,352
2023-05-01T07:28:05.325Z,352
2023-05-01T07:28:39.913Z,352
2023-05-01T07:29:09.427Z,23
2023-05-01T07:29:42.386Z,7
2023-05-01T07:30:14.058Z,7
2023-05-01T07:30:46.353Z,34
2023-05-01T07:31:17.366Z,34
2023-05-01T07:31:50.476Z,358
2023-05-01T07:32:21.602Z,358